Point Arena, CA (95468)

3:18 PM PDT on August 21, 2014 (GMT -0700)
Irish Beach | Change Station
CLOSE
Current Station
Personal Weather Station
Location: Manchester, CA
Elevation: 276 ft
Nearby Weather Stations

Elev 276 ft 39.02 °N, 123.69 °W | Updated 2 minutes ago

Clear
Clear
60.8 °F
Feels Like 60.8 °F
N
5.0
Wind Variable Wind from SW

Today
High -- | Low -- °F
--% Chance of Precip.
Yesterday
High -- | Low -- °F
Precip. -- in
6:33 AM 8:00 PM
Waning Crescent, 12% visible
Pressure 29.86 in
Visibility 10.0 miles
Clouds Clear
Dew Point 57 °F
Humidity 87%
Rainfall 0.00 in
Snow Depth Not available.
UV 8 out of 12
Pollen 6.90 out of 12
Air Quality Not available.
Flu Activity Not available.
METAR KUKI 212156Z AUTO 32008KT 10SM CLR 33/14 A2988 RMK AO2 SLP111 T03330139

More Conditions Fewer Conditions

Pressure 29.86 in
Visibility 10.0 miles
Clouds Clear
Dew Point 57 °F
Humidity 87%
Rainfall 0.00 in
Snow Depth Not available.
UV 8 out of 12
Pollen 6.90 out of 12
Air Quality Not available.
Flu Activity Not available.
METAR KUKI 212156Z AUTO 32008KT 10SM CLR 33/14 A2988 RMK AO2 SLP111 T03330139

More Conditions Fewer Conditions

10-Day Weather Forecast

Almanac

Astronomy

Aug. 21, 2014 Rise Set
Actual Time 6:33 AM PDT 8:00 PM PDT
Civil Twilight 6:05 AM PDT 8:28 PM PDT
Nautical Twilight 5:32 AM PDT 9:02 PM PDT
Astronomical Twilight 4:56 AM PDT 9:37 PM PDT
Moon 3:09 AM PDT 5:32 PM PDT
Length of Visible Light 14h 23m
Length of Day
13h 27m
Tomorrow will be 2m 18s shorter.
Waning Crescent, 12% of the Moon is Illuminated
Today
Waning Crescent
Aug 25
New
Sep 2
First Quarter
Sep 8
Full
Sep 15
Last Quarter

Today's Extremes

State Highs State Lows

Community

WunderPhotos

Upload Photos

1,746,032 photos uploaded!

WunderBlogs® & News

Nearby

Snow Depth

Station Depth Elevation
CSS Lab 1 in 6900 ft
Adin Mountain 0 in 6200 ft
Leavitt Meadows 1 in 7200 ft
Cedar Pass 1 in 7100 ft

Earthquake Activity

City Distance Mag. Time & Date
Berkeley, California 104 miles 2.6 7:41 PM PDT
2014-08-16
Minimum magnitude displayed is 2.5.

Coastal Water Temperatures

Place Temperature
Point Reyes, CA 61.0 °F
Arena Cove, CA 59.0 °F
San Francisco, CA 64.9 °F
Richmond, CA 66.0 °F

Nearby Weather Stations